Time;durP1;ratioP1;P1;durP2;ratioP2;P2;SDS_P1;SDS_P2;PMS_P1;PMS_P2;Temp;Humidity;BMP_temperature;BMP_pressure;BME280_temperature;BME280_humidity;BME280_pressure;Samples;Min_cycle;Max_cycle;Signal;HPM_P1;HPM_P2
2021/10/20 00:00:26;;;;;;;9.60;5.00;;;13.20;99.90;;;;;;5067723;28;20040;-67
2021/10/20 00:02:54;;;;;;;7.25;4.95;;;13.20;99.90;;;;;;5052282;28;20025;-67
2021/10/20 00:05:20;;;;;;;10.05;4.95;;;13.20;99.90;;;;;;5052365;28;20494;-66
2021/10/20 00:07:47;;;;;;;10.43;4.95;;;13.10;99.90;;;;;;5052123;28;20029;-67
2021/10/20 00:10:15;;;;;;;7.85;4.78;;;13.00;99.90;;;;;;5052629;28;20033;-67
2021/10/20 00:12:42;;;;;;;8.27;4.55;;;12.90;99.90;;;;;;5052186;28;20036;-67
2021/10/20 00:15:11;;;;;;;9.85;4.85;;;12.80;99.90;;;;;;5051064;28;20025;-67
2021/10/20 00:17:37;;;;;;;10.38;5.30;;;12.90;99.90;;;;;;5052075;28;20095;-67
2021/10/20 00:20:09;;;;;;;9.25;5.00;;;12.90;99.90;;;;;;5051645;28;20053;-67
2021/10/20 00:22:37;;;;;;;7.97;4.25;;;12.90;99.90;;;;;;5066944;28;20028;-67
2021/10/20 00:25:04;;;;;;;10.13;5.72;;;12.90;99.90;;;;;;5067627;28;20044;-67
2021/10/20 00:27:30;;;;;;;11.57;5.03;;;12.90;99.90;;;;;;5052209;28;20037;-67
2021/10/20 00:29:56;;;;;;;13.18;5.22;;;12.90;99.90;;;;;;5067892;28;20085;-67
2021/10/20 00:32:22;;;;;;;7.68;5.07;;;12.80;99.90;;;;;;5052021;28;20025;-67
2021/10/20 00:34:48;;;;;;;9.48;5.30;;;12.70;99.90;;;;;;5067498;28;20044;-67
2021/10/20 00:37:14;;;;;;;10.32;5.15;;;12.60;99.90;;;;;;5052073;28;20033;-68
2021/10/20 00:39:40;;;;;;;8.55;4.97;;;12.60;99.90;;;;;;5051640;28;20116;-68
2021/10/20 00:42:06;;;;;;;8.65;4.45;;;12.50;99.90;;;;;;5052265;28;20029;-68
2021/10/20 00:44:57;;;;;;;10.50;5.32;;;12.40;99.90;;;;;;5052320;28;20033;-68
2021/10/20 00:47:24;;;;;;;;;;;12.40;99.90;;;;;;5052354;28;20489;-68
2021/10/20 00:49:51;;;;;;;11.57;5.78;;;12.30;99.90;;;;;;5050595;28;19955;-68
2021/10/20 00:52:20;;;;;;;10.50;5.40;;;12.40;99.90;;;;;;5052168;28;20512;-68
2021/10/20 00:54:49;;;;;;;8.65;4.88;;;12.40;99.90;;;;;;5067019;28;20044;-68
2021/10/20 00:57:15;;;;;;;10.73;5.45;;;12.40;99.90;;;;;;5051675;28;20485;-68
2021/10/20 00:59:42;;;;;;;7.90;4.63;;;12.50;99.90;;;;;;5067548;28;20124;-67
2021/10/20 01:02:08;;;;;;;7.78;4.78;;;12.50;99.90;;;;;;5067482;28;20501;-66
2021/10/20 01:04:36;;;;;;;10.57;5.00;;;12.50;99.90;;;;;;5051734;28;20514;-67
2021/10/20 01:07:04;;;;;;;9.15;4.68;;;12.60;99.90;;;;;;5050494;28;20029;-67
2021/10/20 01:09:30;;;;;;;8.13;4.40;;;12.60;99.90;;;;;;5050542;28;20390;-67
2021/10/20 01:11:56;;;;;;;10.82;4.32;;;12.60;99.90;;;;;;5050663;28;20025;-67
2021/10/20 01:14:22;;;;;;;9.85;5.00;;;12.50;99.90;;;;;;5067335;28;20033;-67
2021/10/20 01:16:48;;;;;;;8.30;4.32;;;12.50;99.90;;;;;;5051456;28;20413;-66
2021/10/20 01:19:15;;;;;;;7.97;4.63;;;12.50;99.90;;;;;;5051524;28;20049;-67
2021/10/20 01:21:42;;;;;;;10.65;4.32;;;12.60;99.90;;;;;;5050266;28;20055;-67
2021/10/20 01:24:09;;;;;;;9.10;5.20;;;12.50;99.90;;;;;;5051691;28;20044;-67
2021/10/20 01:26:35;;;;;;;9.15;4.65;;;12.40;99.90;;;;;;5051387;28;20054;-67
2021/10/20 01:29:01;;;;;;;8.10;4.30;;;12.40;99.90;;;;;;5051525;28;20033;-67
2021/10/20 01:31:27;;;;;;;10.90;4.25;;;12.40;99.90;;;;;;5052045;28;20157;-67
2021/10/20 01:33:53;;;;;;;7.13;4.30;;;12.40;99.90;;;;;;5055022;28;20120;-67
2021/10/20 01:36:19;;;;;;;7.00;4.35;;;12.40;99.90;;;;;;5070654;28;20494;-67
2021/10/20 01:38:45;;;;;;;10.40;4.50;;;12.40;99.90;;;;;;5055144;28;20025;-67
2021/10/20 01:41:12;;;;;;;7.72;4.57;;;12.50;99.90;;;;;;5055128;28;20039;-67
2021/10/20 01:43:40;;;;;;;9.20;4.10;;;12.50;99.90;;;;;;5055070;28;20029;-66
2021/10/20 01:46:07;;;;;;;6.88;4.13;;;12.50;99.90;;;;;;5070698;28;20025;-66
2021/10/20 01:48:32;;;;;;;8.07;4.50;;;12.50;99.90;;;;;;5055236;28;20049;-67
2021/10/20 01:50:58;;;;;;;7.50;4.50;;;12.50;99.90;;;;;;5054881;28;20539;-67
2021/10/20 01:53:24;;;;;;;7.95;4.55;;;12.50;99.90;;;;;;5053590;28;20501;-67
2021/10/20 01:55:51;;;;;;;8.90;5.72;;;12.50;99.90;;;;;;5054876;28;20039;-67
2021/10/20 01:58:18;;;;;;;7.95;4.90;;;12.50;99.90;;;;;;5070038;28;20025;-67
2021/10/20 02:00:45;;;;;;;7.13;4.63;;;12.50;99.90;;;;;;5054857;28;20079;-67
2021/10/20 02:03:11;;;;;;;9.48;4.93;;;12.50;99.90;;;;;;5054884;28;20029;-67
2021/10/20 02:05:37;;;;;;;8.15;4.75;;;12.40;99.90;;;;;;5054760;28;20052;-67
2021/10/20 02:08:04;;;;;;;9.98;4.95;;;12.40;99.90;;;;;;5070201;28;20029;-67
2021/10/20 02:10:29;;;;;;;8.57;4.65;;;12.40;99.90;;;;;;5054672;28;20029;-67
2021/10/20 02:12:56;;;;;;;7.00;4.10;;;12.30;99.90;;;;;;5069733;28;20385;-67
2021/10/20 02:15:22;;;;;;;7.55;4.10;;;12.30;99.90;;;;;;5054458;28;20449;-67
2021/10/20 02:17:47;;;;;;;7.22;4.32;;;12.30;99.90;;;;;;5069999;28;20029;-67
2021/10/20 02:20:15;;;;;;;8.45;4.32;;;12.30;99.90;;;;;;5054198;28;20075;-67
2021/10/20 02:22:45;;;;;;;7.95;4.40;;;12.30;99.90;;;;;;5054602;28;20040;-67
2021/10/20 02:25:12;;;;;;;8.60;4.20;;;12.40;99.90;;;;;;5053294;28;20033;-67
2021/10/20 02:27:38;;;;;;;8.13;4.57;;;12.30;99.90;;;;;;5054507;28;20116;-67
2021/10/20 02:30:07;;;;;;;7.03;4.22;;;12.30;99.90;;;;;;5069817;28;20033;-67
2021/10/20 02:32:33;;;;;;;8.88;4.38;;;12.40;99.90;;;;;;5054359;28;20031;-67
2021/10/20 02:34:59;;;;;;;9.55;4.60;;;12.50;99.90;;;;;;5053868;28;20040;-67
2021/10/20 02:37:25;;;;;;;8.95;4.32;;;12.60;99.90;;;;;;5054239;28;20111;-67
2021/10/20 02:39:51;;;;;;;8.32;4.45;;;12.70;99.90;;;;;;5054059;28;20112;-67
2021/10/20 02:42:16;;;;;;;8.27;4.18;;;12.70;99.90;;;;;;5069348;28;20065;-68
2021/10/20 02:44:42;;;;;;;10.23;4.90;;;12.70;99.90;;;;;;5053879;28;20028;-67
2021/10/20 02:47:08;;;;;;;7.10;3.78;;;12.60;99.90;;;;;;5054116;28;20494;-67
2021/10/20 02:49:34;;;;;;;9.00;4.18;;;12.60;99.90;;;;;;5054135;28;20033;-67
2021/10/20 02:51:59;;;;;;;6.53;3.83;;;12.50;99.90;;;;;;5053772;28;20029;-67
2021/10/20 02:54:25;;;;;;;10.85;4.78;;;12.50;99.90;;;;;;5069422;28;20033;-67
2021/10/20 02:56:51;;;;;;;7.93;4.07;;;12.60;99.90;;;;;;5052648;28;20021;-69
2021/10/20 02:59:17;;;;;;;7.55;3.55;;;12.50;99.90;;;;;;5053712;28;20036;-68
2021/10/20 03:01:43;;;;;;;6.90;3.95;;;12.50;99.90;;;;;;5053669;28;20397;-68
2021/10/20 03:04:08;;;;;;;7.35;3.90;;;12.40;99.90;;;;;;5053359;28;20037;-68
2021/10/20 03:06:35;;;;;;;6.53;3.83;;;12.40;99.90;;;;;;5068957;28;20033;-68
2021/10/20 03:09:00;;;;;;;7.03;3.78;;;12.40;99.90;;;;;;5053561;28;20112;-67
2021/10/20 03:11:26;;;;;;;10.82;4.07;;;12.40;99.90;;;;;;5069169;28;20128;-68
2021/10/20 03:13:52;;;;;;;7.70;3.83;;;12.30;99.90;;;;;;5053106;28;20094;-68
2021/10/20 03:16:18;;;;;;;9.07;4.20;;;12.30;99.90;;;;;;5052151;28;20520;-68
2021/10/20 03:18:43;;;;;;;7.50;3.80;;;12.30;99.90;;;;;;5068458;28;20428;-68
2021/10/20 03:21:09;;;;;;;6.82;3.85;;;12.30;99.90;;;;;;5053025;28;20043;-67
2021/10/20 03:23:35;;;;;;;7.35;3.72;;;12.30;99.90;;;;;;5052964;28;20055;-67
2021/10/20 03:26:00;;;;;;;7.35;3.95;;;12.30;99.90;;;;;;5053341;28;20074;-67
2021/10/20 03:28:26;;;;;;;6.35;3.70;;;12.20;99.90;;;;;;5053118;28;20098;-67
2021/10/20 03:30:52;;;;;;;8.43;4.32;;;12.20;99.90;;;;;;5053223;28;20430;-68
2021/10/20 03:33:18;;;;;;;6.45;3.88;;;12.20;99.90;;;;;;5068305;28;20070;-68
2021/10/20 03:35:44;;;;;;;8.55;4.00;;;12.20;99.90;;;;;;5052889;28;20041;-68
2021/10/20 03:38:11;;;;;;;8.63;3.50;;;12.20;99.90;;;;;;5052805;28;20028;-68
2021/10/20 03:40:37;;;;;;;5.70;3.95;;;12.20;99.90;;;;;;5052571;28;20379;-67
2021/10/20 03:43:03;;;;;;;8.65;4.32;;;12.20;99.90;;;;;;5052991;28;20032;-68
2021/10/20 03:45:29;;;;;;;5.95;3.47;;;12.20;99.90;;;;;;5052970;28;20025;-67
2021/10/20 03:47:55;;;;;;;6.13;3.65;;;12.10;99.90;;;;;;5060707;28;20033;-67
2021/10/20 03:50:21;;;;;;;5.35;3.90;;;12.10;99.90;;;;;;5052685;28;20026;-67
2021/10/20 03:52:47;;;;;;;9.43;3.95;;;12.10;99.90;;;;;;5044226;28;20547;-68
2021/10/20 03:55:13;;;;;;;7.65;4.55;;;12.00;99.90;;;;;;5051959;28;20043;-67
2021/10/20 03:57:40;;;;;;;7.80;4.03;;;11.90;99.90;;;;;;5045173;28;20029;-67
2021/10/20 04:00:11;;;;;;;8.68;4.93;;;11.90;99.90;;;;;;5037940;28;20098;-66
2021/10/20 04:02:42;;;;;;;8.23;4.65;;;11.80;99.90;;;;;;5036121;28;20119;-68
2021/10/20 04:05:10;;;;;;;8.63;4.20;;;11.80;99.90;;;;;;5049961;28;20033;-67
2021/10/20 04:07:41;;;;;;;7.75;4.53;;;11.80;99.90;;;;;;5052202;28;20166;-67
2021/10/20 04:10:11;;;;;;;8.13;4.07;;;11.80;99.90;;;;;;5051011;28;20029;-67
2021/10/20 04:12:37;;;;;;;8.63;4.32;;;11.70;99.90;;;;;;5052673;28;20159;-67
2021/10/20 04:15:04;;;;;;;8.60;4.25;;;11.70;99.90;;;;;;5067716;28;20514;-67
2021/10/20 04:17:30;;;;;;;10.35;4.00;;;11.60;99.90;;;;;;5038717;28;20075;-67
2021/10/20 04:19:56;;;;;;;8.68;4.63;;;11.60;99.90;;;;;;5031069;28;20132;-74
2021/10/20 04:22:22;;;;;;;7.55;4.15;;;11.70;99.90;;;;;;5051145;28;20040;-66
2021/10/20 04:24:48;;;;;;;9.23;4.05;;;11.70;99.90;;;;;;5052377;28;20037;-68
2021/10/20 04:27:13;;;;;;;7.18;4.25;;;11.70;99.90;;;;;;5043143;28;20394;-67
2021/10/20 04:29:39;;;;;;;8.15;4.28;;;11.70;99.90;;;;;;5063787;28;20033;-67
2021/10/20 04:32:05;;;;;;;10.15;3.80;;;11.70;99.90;;;;;;5051256;28;20055;-67
2021/10/20 04:34:31;;;;;;;7.90;4.30;;;11.80;99.90;;;;;;5041167;28;20150;-67
2021/10/20 04:36:57;;;;;;;9.27;4.25;;;11.80;99.90;;;;;;5043646;28;20498;-69
2021/10/20 04:39:22;;;;;;;8.27;4.15;;;11.80;99.90;;;;;;5067353;28;20047;-68
2021/10/20 04:41:48;;;;;;;6.88;4.18;;;11.80;99.90;;;;;;5051815;28;20082;-67
2021/10/20 04:44:14;;;;;;;7.45;3.85;;;11.80;99.90;;;;;;5050602;28;20051;-68
2021/10/20 04:46:40;;;;;;;7.53;4.13;;;11.80;99.90;;;;;;5048790;28;20052;-67
2021/10/20 04:49:06;;;;;;;9.93;4.70;;;11.80;99.90;;;;;;5030930;28;20104;-68
2021/10/20 04:51:31;;;;;;;11.25;4.07;;;11.80;99.90;;;;;;5030678;28;20091;-68
2021/10/20 04:53:57;;;;;;;6.97;3.58;;;11.90;99.90;;;;;;5030496;28;20091;-68
2021/10/20 04:56:23;;;;;;;7.32;3.80;;;11.90;99.90;;;;;;5049604;28;20409;-66
2021/10/20 04:58:48;;;;;;;6.32;3.80;;;11.90;99.90;;;;;;5066559;28;20037;-66
2021/10/20 05:01:14;;;;;;;13.25;4.07;;;11.90;99.90;;;;;;5060355;28;20032;-66
2021/10/20 05:03:40;;;;;;;6.95;3.92;;;11.80;99.90;;;;;;5060858;28;20021;-66
2021/10/20 05:06:06;;;;;;;9.90;4.45;;;11.70;99.90;;;;;;5052307;28;20024;-66
2021/10/20 05:08:31;;;;;;;7.05;3.67;;;11.70;99.90;;;;;;5055334;28;20062;-66
2021/10/20 05:10:58;;;;;;;10.27;4.13;;;11.70;99.90;;;;;;5055015;28;20029;-66
2021/10/20 05:13:24;;;;;;;9.05;4.20;;;11.70;99.90;;;;;;5055841;28;20074;-66
2021/10/20 05:15:50;;;;;;;8.15;3.72;;;11.70;99.90;;;;;;5055265;28;20033;-67
2021/10/20 05:18:16;;;;;;;12.38;4.22;;;11.60;99.90;;;;;;5071946;28;20068;-53
2021/10/20 05:20:42;;;;;;;9.55;5.05;;;11.60;99.90;;;;;;5075290;28;20048;-52
2021/10/20 05:23:11;;;;;;;9.52;3.90;;;11.60;99.90;;;;;;5046330;28;20393;-52
2021/10/20 05:25:38;;;;;;;7.78;4.25;;;11.60;99.90;;;;;;5043336;28;20052;-66
2021/10/20 05:28:05;;;;;;;6.82;4.20;;;11.60;99.90;;;;;;5035713;28;20570;-67
2021/10/20 05:30:32;;;;;;;6.72;3.92;;;11.70;99.90;;;;;;5047807;28;20490;-67
2021/10/20 05:32:58;;;;;;;7.47;4.78;;;11.60;99.90;;;;;;5069682;28;20033;-66
2021/10/20 05:35:24;;;;;;;8.40;4.75;;;11.70;99.90;;;;;;5070519;28;20108;-66
2021/10/20 05:37:51;;;;;;;7.07;3.88;;;11.70;99.90;;;;;;5055306;28;20104;-66
2021/10/20 05:40:20;;;;;;;8.52;5.07;;;11.60;99.90;;;;;;5054677;28;20444;-67
2021/10/20 05:42:45;;;;;;;6.93;3.95;;;11.60;99.90;;;;;;5054874;28;20083;-67
2021/10/20 05:45:11;;;;;;;9.93;3.85;;;11.60;99.90;;;;;;5054815;28;20041;-66
2021/10/20 05:47:37;;;;;;;9.18;4.53;;;11.60;99.90;;;;;;5055113;28;20036;-66
2021/10/20 05:50:04;;;;;;;6.78;3.88;;;11.60;99.90;;;;;;5054720;28;20039;-66
2021/10/20 05:52:30;;;;;;;8.57;4.40;;;11.60;99.90;;;;;;5054788;28;20056;-66
2021/10/20 05:55:00;;;;;;;9.65;4.47;;;11.70;99.90;;;;;;5054639;28;20622;-67
2021/10/20 05:57:27;;;;;;;8.60;4.35;;;11.70;99.90;;;;;;5054711;28;20048;-67
2021/10/20 05:59:54;;;;;;;8.40;4.15;;;11.70;99.90;;;;;;5054763;28;20033;-67
2021/10/20 06:02:20;;;;;;;10.95;4.57;;;11.70;99.90;;;;;;5069516;28;20072;-66
2021/10/20 06:04:46;;;;;;;7.13;4.18;;;11.80;99.90;;;;;;5054857;28;20485;-67
2021/10/20 06:07:12;;;;;;;6.70;3.70;;;11.80;99.90;;;;;;5054334;28;20044;-67
2021/10/20 06:09:38;;;;;;;6.88;3.88;;;11.80;99.90;;;;;;5070364;28;20059;-67
2021/10/20 06:12:05;;;;;;;8.02;3.90;;;11.70;99.90;;;;;;5070055;28;20033;-67
2021/10/20 06:14:31;;;;;;;8.68;3.97;;;11.70;99.90;;;;;;5070052;28;20036;-66
2021/10/20 06:16:57;;;;;;;7.78;4.25;;;11.90;99.90;;;;;;5068865;28;20032;-67
2021/10/20 06:19:24;;;;;;;8.85;4.05;;;12.00;99.90;;;;;;5069460;28;20083;-66
2021/10/20 06:21:50;;;;;;;6.25;3.50;;;12.00;99.90;;;;;;5054428;28;20486;-66
2021/10/20 06:24:16;;;;;;;6.30;3.65;;;12.00;99.90;;;;;;5052970;28;20474;-66
2021/10/20 06:26:42;;;;;;;6.90;3.67;;;12.00;99.90;;;;;;5054221;28;20029;-67
2021/10/20 06:29:08;;;;;;;7.53;4.38;;;12.00;99.90;;;;;;5054176;28;20025;-66
2021/10/20 06:31:34;;;;;;;7.10;4.20;;;12.00;99.90;;;;;;5069419;28;20033;-67
2021/10/20 06:33:59;;;;;;;10.13;4.10;;;12.10;99.90;;;;;;5054275;28;20064;-67
2021/10/20 06:36:37;;;;;;;8.18;4.57;;;12.10;99.90;;;;;;5069539;28;20037;-67
2021/10/20 06:39:03;;;;;;;8.85;4.45;;;12.10;99.90;;;;;;5052689;28;20033;-67
2021/10/20 06:41:29;;;;;;;7.53;4.53;;;12.20;99.90;;;;;;5053672;28;20429;-67
2021/10/20 06:43:55;;;;;;;6.90;4.10;;;12.20;99.90;;;;;;5069812;28;20037;-67
2021/10/20 06:46:21;;;;;;;13.18;4.43;;;12.30;99.90;;;;;;5069033;28;20029;-67
2021/10/20 06:48:47;;;;;;;6.20;3.25;;;12.40;99.90;;;;;;5053706;28;20064;-67
2021/10/20 06:51:14;;;;;;;7.97;3.95;;;12.50;99.90;;;;;;5053595;28;20036;-67
2021/10/20 06:53:40;;;;;;;6.15;3.78;;;12.60;99.90;;;;;;5053779;28;20048;-67
2021/10/20 06:56:09;;;;;;;6.70;3.85;;;12.80;99.90;;;;;;5053522;28;20080;-67
2021/10/20 06:58:36;;;;;;;10.10;4.03;;;12.90;99.90;;;;;;5068669;28;20060;-67
2021/10/20 07:01:02;;;;;;;6.40;4.30;;;12.90;99.90;;;;;;5053749;28;20033;-67
2021/10/20 07:03:28;;;;;;;6.55;3.72;;;13.00;99.90;;;;;;5068678;28;20077;-67
2021/10/20 07:05:54;;;;;;;7.50;4.05;;;13.00;99.90;;;;;;5053552;28;20033;-67
2021/10/20 07:08:19;;;;;;;6.55;3.65;;;13.10;99.90;;;;;;5053657;28;20468;-67
2021/10/20 07:10:45;;;;;;;5.70;3.58;;;13.20;99.90;;;;;;5053755;28;20122;-67
2021/10/20 07:13:11;;;;;;;7.88;3.80;;;13.30;99.90;;;;;;5068891;28;20045;-67
2021/10/20 07:15:37;;;;;;;6.45;3.33;;;13.30;99.90;;;;;;5053524;28;20047;-67
2021/10/20 07:18:03;;;;;;;7.15;3.80;;;13.40;99.90;;;;;;5068378;28;20386;-67
2021/10/20 07:20:29;;;;;;;7.72;3.45;;;13.50;99.90;;;;;;5068437;28;20048;-67
2021/10/20 07:22:55;;;;;;;7.57;3.80;;;13.60;99.90;;;;;;5053451;28;20033;-67
2021/10/20 07:25:21;;;;;;;7.85;4.43;;;13.60;99.90;;;;;;5052826;28;20043;-67
2021/10/20 07:27:47;;;;;;;6.35;3.85;;;13.60;99.90;;;;;;5053446;28;20025;-67
2021/10/20 07:30:14;;;;;;;9.48;3.88;;;13.60;99.90;;;;;;5052966;28;20083;-67
2021/10/20 07:32:41;;;;;;;8.20;3.30;;;13.60;99.90;;;;;;5068326;28;20116;-66
2021/10/20 07:35:16;;;;;;;7.10;3.50;;;13.60;99.90;;;;;;5053036;28;20146;-67
2021/10/20 07:37:46;;;;;;;7.80;3.70;;;13.70;99.90;;;;;;5052839;28;20032;-67
2021/10/20 07:40:14;;;;;;;6.85;4.10;;;13.80;99.90;;;;;;5052769;28;20501;-67
2021/10/20 07:42:44;;;;;;;10.27;3.47;;;13.80;99.90;;;;;;5068128;28;20575;-67
2021/10/20 07:45:15;;;;;;;6.20;3.90;;;13.90;99.90;;;;;;5068069;28;20037;-67
2021/10/20 07:47:42;;;;;;;7.15;3.45;;;13.90;99.90;;;;;;5052856;28;20540;-67
2021/10/20 07:50:09;;;;;;;5.65;3.40;;;14.10;99.90;;;;;;5052287;28;20040;-68
2021/10/20 07:52:36;;;;;;;7.70;3.80;;;14.20;99.90;;;;;;5052808;28;20029;-68
2021/10/20 07:55:06;;;;;;;7.72;4.03;;;14.10;99.90;;;;;;5051311;28;20032;-68
2021/10/20 07:57:34;;;;;;;11.10;4.63;;;14.10;99.90;;;;;;5067869;28;20078;-68
2021/10/20 08:00:00;;;;;;;7.63;3.58;;;14.00;99.90;;;;;;5052567;28;20047;-68
2021/10/20 08:02:25;;;;;;;7.38;3.90;;;14.00;99.90;;;;;;5052216;28;20444;-68
2021/10/20 08:04:51;;;;;;;8.63;3.65;;;14.00;99.90;;;;;;5067690;28;20374;-68
2021/10/20 08:07:17;;;;;;;6.47;3.70;;;14.00;99.90;;;;;;5052115;28;20120;-68
2021/10/20 08:09:43;;;;;;;6.47;3.40;;;13.90;99.90;;;;;;5052483;28;20393;-68
2021/10/20 08:12:09;;;;;;;6.38;3.55;;;14.00;99.90;;;;;;5067583;28;20139;-68
2021/10/20 08:14:40;;;;;;;7.97;3.70;;;14.10;99.90;;;;;;5067864;28;20071;-68
2021/10/20 08:17:07;;;;;;;6.07;3.40;;;14.10;99.90;;;;;;5050810;28;20036;-68
2021/10/20 08:19:33;;;;;;;7.97;4.30;;;14.20;99.90;;;;;;5067436;28;20055;-68
2021/10/20 08:21:59;;;;;;;5.38;3.60;;;14.20;99.90;;;;;;5052485;28;20025;-68
2021/10/20 08:24:24;;;;;;;5.70;2.95;;;14.30;99.90;;;;;;5052310;28;20158;-68
2021/10/20 08:26:50;;;;;;;5.03;3.33;;;14.40;99.90;;;;;;5067717;28;20389;-68
2021/10/20 08:29:16;;;;;;;7.78;3.67;;;14.30;99.90;;;;;;5067402;28;20048;-67
2021/10/20 08:31:42;;;;;;;8.98;3.83;;;14.30;99.90;;;;;;5052131;28;20025;-68
2021/10/20 08:34:07;;;;;;;7.68;4.20;;;14.50;99.90;;;;;;5051727;28;20066;-67
2021/10/20 08:36:34;;;;;;;8.68;4.03;;;14.50;99.90;;;;;;5052032;28;20066;-67
2021/10/20 08:38:59;;;;;;;10.25;4.45;;;14.50;99.90;;;;;;5051882;28;20032;-68
2021/10/20 08:41:26;;;;;;;6.20;3.33;;;14.60;99.90;;;;;;5071727;28;20083;-68
2021/10/20 08:43:52;;;;;;;8.10;3.70;;;14.60;99.90;;;;;;5058786;28;20040;-68
2021/10/20 08:46:21;;;;;;;9.38;3.70;;;14.70;99.90;;;;;;5058480;28;20033;-67
2021/10/20 08:48:47;;;;;;;5.93;3.40;;;14.70;99.90;;;;;;5073898;28;20056;-68
2021/10/20 08:51:16;;;;;;;5.60;3.00;;;14.70;99.90;;;;;;5073922;28;20166;-67
2021/10/20 08:53:42;;;;;;;7.88;3.67;;;14.80;99.90;;;;;;5073683;28;20032;-68
2021/10/20 08:56:07;;;;;;;5.25;3.13;;;14.90;99.90;;;;;;5058347;28;20040;-68
2021/10/20 08:58:33;;;;;;;7.78;3.47;;;14.90;99.90;;;;;;5074280;28;20079;-68
2021/10/20 09:00:59;;;;;;;8.63;4.03;;;14.90;99.90;;;;;;5058463;28;20098;-68
2021/10/20 09:03:24;;;;;;;6.65;3.42;;;14.90;99.90;;;;;;5058240;28;20029;-68
2021/10/20 09:05:50;;;;;;;6.10;3.33;;;15.00;99.90;;;;;;5058689;28;20037;-68
2021/10/20 09:08:16;;;;;;;5.72;2.92;;;14.90;99.90;;;;;;5058269;28;20033;-68
2021/10/20 09:10:46;;;;;;;5.72;3.03;;;15.00;99.90;;;;;;5058733;28;20127;-68
2021/10/20 09:13:13;;;;;;;5.93;3.45;;;15.00;99.90;;;;;;5073763;28;20056;-68
2021/10/20 09:15:38;;;;;;;7.30;3.40;;;15.00;99.90;;;;;;5074029;28;20040;-68
2021/10/20 09:18:10;;;;;;;9.55;3.67;;;15.00;99.90;;;;;;5058212;28;20033;-68
2021/10/20 09:20:45;;;;;;;8.63;3.35;;;14.90;99.90;;;;;;5073332;28;20098;-68
2021/10/20 09:23:21;;;;;;;7.00;3.13;;;14.90;99.90;;;;;;5058016;28;20031;-68
2021/10/20 09:25:59;;;;;;;7.97;4.45;;;15.10;99.90;;;;;;5073680;28;20037;-68
2021/10/20 09:28:32;;;;;;;7.20;3.70;;;15.00;99.90;;;;;;5073828;28;20033;-68
2021/10/20 09:31:05;;;;;;;6.22;3.60;;;15.00;99.90;;;;;;5058313;28;20025;-68
2021/10/20 09:33:36;;;;;;;9.68;4.03;;;15.20;99.90;;;;;;5073294;28;20083;-68
2021/10/20 09:36:14;;;;;;;9.60;3.95;;;15.30;99.90;;;;;;5058030;28;20043;-69
2021/10/20 09:38:46;;;;;;;10.15;4.57;;;15.30;99.90;;;;;;5072988;28;20025;-68
2021/10/20 09:41:13;;;;;;;8.05;4.22;;;15.40;99.90;;;;;;5058266;28;20072;-67
2021/10/20 09:43:47;;;;;;;11.50;3.55;;;15.40;99.90;;;;;;5073489;28;20029;-68
2021/10/20 09:46:13;;;;;;;6.70;3.50;;;15.30;99.90;;;;;;5057993;28;20437;-68
2021/10/20 09:48:43;;;;;;;8.63;4.47;;;15.30;99.90;;;;;;5058227;28;20087;-68
2021/10/20 09:51:12;;;;;;;5.88;3.45;;;15.40;99.90;;;;;;5057863;28;20024;-68
2021/10/20 09:53:44;;;;;;;7.13;3.63;;;15.50;99.90;;;;;;5053885;28;20485;-68
2021/10/20 09:56:34;;;;;;;7.13;3.70;;;15.60;99.90;;;;;;5070170;28;20029;-68
2021/10/20 09:59:00;;;;;;;7.63;3.47;;;15.70;99.90;;;;;;5069870;28;20033;-69
2021/10/20 10:01:30;;;;;;;12.43;3.65;;;16.00;99.90;;;;;;5054938;28;20553;-69
2021/10/20 10:03:58;;;;;;;7.20;3.83;;;15.90;99.90;;;;;;5054828;28;20028;-68
2021/10/20 10:06:24;;;;;;;10.05;3.92;;;15.90;99.90;;;;;;5053232;28;20124;-68
2021/10/20 10:08:50;;;;;;;10.15;3.88;;;16.00;99.90;;;;;;5053580;28;20108;-69
2021/10/20 10:11:16;;;;;;;7.65;3.38;;;16.00;99.90;;;;;;5069943;28;20420;-69
2021/10/20 10:13:54;;;;;;;9.80;3.38;;;16.10;99.90;;;;;;5070289;28;20041;-68
2021/10/20 10:16:27;;;;;;;6.80;3.28;;;16.20;99.90;;;;;;5069654;28;20029;-68
2021/10/20 10:19:00;;;;;;;8.88;3.17;;;16.40;99.90;;;;;;5069124;28;20029;-69
2021/10/20 10:21:41;;;;;;;7.20;3.17;;;16.60;99.90;;;;;;5054365;28;20045;-68
2021/10/20 10:24:20;;;;;;;7.03;3.17;;;17.00;99.90;;;;;;5069369;28;20477;-69
2021/10/20 10:27:09;;;;;;;7.00;3.15;;;17.30;99.90;;;;;;5068478;28;20045;-68
2021/10/20 10:29:55;;;;;;;7.53;3.65;;;17.30;99.90;;;;;;5054068;28;20048;-67
2021/10/20 10:32:26;;;;;;;7.55;3.28;;;17.60;99.90;;;;;;5068941;28;20029;-67
2021/10/20 10:34:52;;;;;;;6.75;3.58;;;17.60;99.90;;;;;;5069158;28;20037;-67
2021/10/20 10:37:28;;;;;;;6.75;3.22;;;17.60;99.90;;;;;;5053814;28;20045;-68
2021/10/20 10:39:55;;;;;;;5.93;3.25;;;17.50;99.90;;;;;;5069263;28;20029;-67
2021/10/20 10:42:35;;;;;;;7.22;3.10;;;17.50;99.90;;;;;;5053863;28;20112;-68
2021/10/20 10:45:26;;;;;;;7.28;3.38;;;17.50;99.90;;;;;;5069025;28;20033;-67
2021/10/20 10:47:58;;;;;;;8.30;3.40;;;17.50;99.90;;;;;;5052641;28;20049;-67
2021/10/20 10:50:48;;;;;;;10.00;3.22;;;17.60;99.90;;;;;;5052466;28;20039;-67
2021/10/20 10:53:33;;;;;;;9.10;2.83;;;17.60;99.90;;;;;;5053505;28;20073;-67
2021/10/20 10:56:07;;;;;;;8.73;3.35;;;17.60;99.90;;;;;;5053654;28;20060;-68
2021/10/20 10:58:55;;;;;;;5.80;3.28;;;17.80;99.90;;;;;;5053406;28;20036;-68
2021/10/20 11:01:48;;;;;;;9.18;3.10;;;17.80;99.90;;;;;;5053604;28;20032;-68
2021/10/20 11:04:26;;;;;;;7.70;3.60;;;17.80;99.90;;;;;;5068289;28;20033;-67
2021/10/20 11:06:56;;;;;;;7.85;3.20;;;17.80;99.90;;;;;;5053334;28;20029;-67
2021/10/20 11:09:32;;;;;;;8.18;2.85;;;17.90;99.90;;;;;;5053463;28;20119;-67
2021/10/20 11:12:02;;;;;;;6.72;3.08;;;17.90;99.90;;;;;;5067980;28;20086;-69
2021/10/20 11:14:31;;;;;;;6.13;2.97;;;17.90;99.90;;;;;;5068301;28;20482;-68
2021/10/20 11:17:05;;;;;;;5.22;2.50;;;17.90;99.90;;;;;;5068510;28;20337;-67
2021/10/20 11:19:31;;;;;;;8.48;3.15;;;18.00;99.90;;;;;;5052938;28;20036;-67
2021/10/20 11:22:00;;;;;;;8.40;2.70;;;18.00;99.90;;;;;;5068672;28;20039;-67
2021/10/20 11:24:26;;;;;;;7.32;2.50;;;18.00;99.90;;;;;;5052927;28;20037;-67
2021/10/20 11:26:58;;;;;;;8.00;2.88;;;18.20;99.90;;;;;;5052977;28;20095;-67
2021/10/20 11:29:24;;;;;;;4.70;2.80;;;18.30;99.90;;;;;;5052739;28;20037;-67
2021/10/20 11:31:53;;;;;;;5.70;2.97;;;18.30;99.90;;;;;;5053048;28;20043;-67
2021/10/20 11:34:24;;;;;;;9.80;3.30;;;18.40;99.90;;;;;;5067929;28;20033;-67
2021/10/20 11:36:51;;;;;;;8.75;3.28;;;18.50;99.90;;;;;;5053159;28;20056;-67
2021/10/20 11:39:17;;;;;;;7.85;2.65;;;18.40;99.90;;;;;;5067896;28;20033;-68
2021/10/20 11:41:55;;;;;;;4.63;2.72;;;18.50;99.90;;;;;;5052264;28;20052;-68
2021/10/20 11:44:31;;;;;;;4.43;2.80;;;18.60;99.90;;;;;;5052644;28;20047;-67
2021/10/20 11:46:59;;;;;;;6.20;2.78;;;18.70;99.90;;;;;;5051306;28;20029;-67
2021/10/20 11:49:25;;;;;;;5.38;2.60;;;18.70;99.90;;;;;;5067785;28;20448;-67
2021/10/20 11:51:52;;;;;;;4.97;3.00;;;18.80;99.90;;;;;;5067965;28;20032;-67
2021/10/20 11:54:21;;;;;;;4.38;2.28;;;18.80;99.90;;;;;;5052762;28;20056;-68
2021/10/20 11:56:56;;;;;;;5.15;2.63;;;18.80;99.90;;;;;;5051067;28;20060;-67
2021/10/20 11:59:24;;;;;;;4.68;2.85;;;18.90;99.90;;;;;;5067893;28;20060;-68
2021/10/20 12:01:51;;;;;;;4.20;2.30;;;18.90;99.90;;;;;;5067892;28;20033;-67
2021/10/20 12:04:19;;;;;;;4.65;2.78;;;19.10;99.90;;;;;;5052551;28;20025;-67
2021/10/20 12:06:52;;;;;;;5.45;2.78;;;19.50;99.90;;;;;;5052244;28;20029;-67
2021/10/20 12:09:18;;;;;;;8.05;2.88;;;19.40;99.90;;;;;;5067452;28;20020;-67
2021/10/20 12:11:44;;;;;;;4.88;2.55;;;19.40;99.90;;;;;;5067518;28;20033;-68
2021/10/20 12:14:17;;;;;;;8.35;2.83;;;19.30;99.90;;;;;;5050914;28;20040;-68
2021/10/20 12:16:43;;;;;;;6.10;2.60;;;19.30;99.90;;;;;;5051265;28;20563;-67
2021/10/20 12:19:11;;;;;;;5.15;2.80;;;19.40;99.90;;;;;;5050472;28;20397;-68
2021/10/20 12:21:43;;;;;;;8.57;2.72;;;19.30;99.90;;;;;;5067012;28;20033;-67
2021/10/20 12:24:15;;;;;;;4.50;2.30;;;19.30;99.90;;;;;;5052067;28;20102;-67
2021/10/20 12:26:42;;;;;;;5.72;3.05;;;19.20;99.90;;;;;;5050472;28;20069;-67
2021/10/20 12:29:10;;;;;;;5.95;2.72;;;19.20;99.90;;;;;;5067463;28;20041;-67
2021/10/20 12:31:37;;;;;;;8.45;2.55;;;19.10;99.90;;;;;;5051976;28;20054;-68
2021/10/20 12:34:04;;;;;;;8.82;2.63;;;19.10;99.90;;;;;;5067290;28;20033;-67
2021/10/20 12:36:33;;;;;;;4.55;2.55;;;19.10;99.90;;;;;;5067453;28;20033;-67
2021/10/20 12:39:01;;;;;;;8.52;2.60;;;19.20;99.90;;;;;;5052056;28;20120;-68
2021/10/20 12:41:32;;;;;;;8.55;2.75;;;19.10;99.90;;;;;;5067353;28;20439;-68
2021/10/20 12:44:06;;;;;;;8.20;2.58;;;19.10;99.90;;;;;;5052246;28;20143;-67
2021/10/20 12:46:42;;;;;;;5.18;2.28;;;19.10;99.90;;;;;;5050410;28;20040;-68
2021/10/20 12:49:09;;;;;;;6.07;2.78;;;19.10;99.90;;;;;;5066795;28;20029;-67